Time;durP1;ratioP1;P1;durP2;ratioP2;P2;SDS_P1;SDS_P2;PMS_P1;PMS_P2;Temp;Humidity;BMP_temperature;BMP_pressure;BME280_temperature;BME280_humidity;BME280_pressure;Samples;Min_cycle;Max_cycle;Signal;HPM_P1;HPM_P2
2022/04/10 00:02:03;;;;;;;1.33;0.90;;;6.20;95.40;;;4.51;67.31;99563.16;10354040;28;96428;-76
2022/04/10 00:07:06;;;;;;;1.53;0.87;;;6.20;95.80;;;4.45;67.15;99571.63;10359283;28;96517;-76
2022/04/10 00:12:09;;;;;;;5.80;1.20;;;6.20;95.80;;;4.42;67.44;99570.09;10380545;28;96542;-77
2022/04/10 00:17:12;;;;;;;1.40;0.80;;;6.10;95.80;;;4.39;67.27;99567.78;10334713;28;97129;-77
2022/04/10 00:22:15;;;;;;;1.53;0.77;;;6.10;95.90;;;4.34;67.11;99561.28;10335397;28;97912;-77
2022/04/10 00:27:18;;;;;;;3.23;1.20;;;6.00;95.90;;;4.30;67.15;99553.66;10327031;28;98555;-77
2022/04/10 00:32:27;;;;;;;2.83;0.80;;;6.00;96.00;;;4.28;67.27;99550.34;10339931;28;97065;-77
2022/04/10 00:37:30;;;;;;;2.70;1.03;;;6.00;95.80;;;4.27;67.44;99553.13;10368233;28;98024;-76
2022/04/10 00:42:38;;;;;;;2.63;0.90;;;6.00;96.10;;;4.26;67.80;99551.50;10393736;28;96537;-78
2022/04/10 00:47:44;;;;;;;1.50;0.80;;;6.00;96.20;;;4.22;67.67;99547.47;10335740;28;96540;-77
2022/04/10 00:52:50;;;;;;;1.77;1.07;;;5.90;96.40;;;4.18;68.54;99546.09;10342019;28;98291;-79
2022/04/10 00:57:53;;;;;;;1.57;1.00;;;5.80;97.30;;;4.13;68.96;99562.28;10361595;28;96654;-78
2022/04/10 01:02:56;;;;;;;3.03;1.20;;;5.80;97.50;;;4.10;69.08;99561.75;10378107;28;96601;-78
2022/04/10 01:07:59;;;;;;;2.33;1.10;;;5.80;98.10;;;4.06;69.47;99570.91;10328340;28;96732;-77
2022/04/10 01:13:02;;;;;;;2.17;1.10;;;5.70;98.00;;;3.96;69.87;99581.44;10361121;28;96484;-78
2022/04/10 01:18:06;;;;;;;1.53;0.97;;;5.70;98.30;;;3.85;70.40;99589.47;10345671;28;96480;-78
2022/04/10 01:23:09;;;;;;;2.30;1.17;;;5.60;98.40;;;3.73;71.03;99588.78;10339360;28;96601;-78
2022/04/10 01:28:13;;;;;;;1.90;0.97;;;5.50;99.10;;;3.62;71.23;99600.25;10400424;28;96543;-78
2022/04/10 01:33:16;;;;;;;2.10;1.20;;;5.40;99.30;;;3.54;71.44;99594.03;10356610;28;96561;-77
2022/04/10 01:38:20;;;;;;;1.87;1.23;;;5.30;99.90;;;3.45;72.18;99586.00;10372614;28;97608;-78
2022/04/10 01:43:23;;;;;;;4.00;1.80;;;5.20;99.90;;;3.39;72.35;99604.94;10378788;28;96576;-77
2022/04/10 01:48:26;;;;;;;2.57;1.30;;;5.10;99.90;;;3.34;72.54;99599.25;10385321;28;96803;-77
2022/04/10 01:53:28;;;;;;;2.13;1.30;;;5.10;99.90;;;3.30;73.06;99608.41;10368174;28;96702;-77
2022/04/10 01:58:39;;;;;;;2.43;1.30;;;5.00;99.90;;;3.25;73.22;99613.22;10374572;28;96452;-77
2022/04/10 02:03:43;;;;;;;2.33;1.30;;;5.00;99.90;;;3.18;73.69;99626.06;10341511;28;96622;-76
2022/04/10 02:08:46;;;;;;;3.73;1.60;;;4.90;99.90;;;3.13;73.28;99622.19;10340599;28;96588;-77
2022/04/10 02:13:49;;;;;;;2.53;1.20;;;4.90;99.90;;;3.09;73.61;99628.66;10395035;28;96469;-77
2022/04/10 02:18:52;;;;;;;3.50;1.27;;;4.90;99.90;;;3.03;74.15;99637.06;10361710;28;97465;-76
2022/04/10 02:23:55;;;;;;;2.30;1.40;;;4.80;99.90;;;2.99;74.14;99639.13;10346048;28;96605;-77
2022/04/10 02:28:59;;;;;;;3.63;1.30;;;4.80;99.90;;;2.94;74.40;99641.34;10363579;28;96521;-76
2022/04/10 02:34:02;;;;;;;2.87;1.50;;;4.70;99.90;;;2.90;74.48;99646.00;10339498;28;96482;-76
2022/04/10 02:39:05;;;;;;;2.50;1.53;;;4.70;99.90;;;2.86;74.73;99644.59;10349530;28;96522;-77
2022/04/10 02:44:08;;;;;;;3.47;1.63;;;4.70;99.90;;;2.83;74.82;99651.91;10391688;28;96607;-76
2022/04/10 02:49:11;;;;;;;2.67;1.50;;;4.60;99.90;;;2.80;74.69;99650.38;10356540;28;96600;-76
2022/04/10 02:54:14;;;;;;;2.90;1.30;;;4.60;99.90;;;2.80;74.17;99644.28;10316489;28;98707;-77
2022/04/10 02:59:17;;;;;;;2.87;1.40;;;4.60;99.90;;;2.82;73.98;99652.84;10380187;28;96631;-76
2022/04/10 03:04:20;;;;;;;2.53;1.47;;;4.60;99.90;;;2.80;74.03;99666.13;10332791;28;96923;-75
2022/04/10 03:09:23;;;;;;;3.97;1.50;;;4.60;99.90;;;2.80;73.85;99660.88;10346736;28;96532;-76
2022/04/10 03:14:26;;;;;;;2.83;1.70;;;4.60;99.90;;;2.82;74.07;99673.84;10388578;28;96549;-75
2022/04/10 03:19:29;;;;;;;3.17;1.37;;;4.50;99.90;;;2.83;73.72;99686.84;10336654;28;96553;-76
2022/04/10 03:24:31;;;;;;;4.37;2.50;;;4.60;99.90;;;2.83;74.01;99689.47;10344898;28;96614;-75
2022/04/10 03:29:35;;;;;;;2.00;1.10;;;4.60;99.90;;;2.81;74.37;99701.88;10395418;28;96900;-78
2022/04/10 03:34:37;;;;;;;2.87;1.80;;;4.50;99.90;;;2.79;74.52;99709.06;10340344;28;96890;-75
2022/04/10 03:39:40;;;;;;;3.70;2.37;;;4.50;99.90;;;2.72;74.98;99726.28;10387308;27;96604;-77
2022/04/10 03:44:43;;;;;;;4.17;1.87;;;4.50;99.90;;;2.72;75.27;99734.16;10365723;28;96600;-78
2022/04/10 03:49:46;;;;;;;3.43;2.07;;;4.40;99.90;;;2.71;75.80;99739.53;10357144;28;96501;-78
2022/04/10 03:54:49;;;;;;;3.57;2.30;;;4.40;99.90;;;2.71;75.77;99734.31;10341864;28;96437;-77
2022/04/10 03:59:52;;;;;;;3.13;2.23;;;4.40;99.90;;;2.72;76.43;99736.78;10355763;28;97861;-77
2022/04/10 04:04:55;;;;;;;3.63;2.30;;;4.40;99.90;;;2.69;77.03;99734.41;10337653;28;96593;-77
2022/04/10 04:09:58;;;;;;;3.10;2.30;;;4.40;99.90;;;2.69;77.11;99750.16;10317349;28;96443;-77
2022/04/10 04:15:01;;;;;;;3.27;2.63;;;4.40;99.90;;;2.68;77.53;99751.94;10348696;28;96443;-77
2022/04/10 04:20:06;;;;;;;4.67;3.00;;;4.30;99.90;;;2.66;77.76;99759.13;10353871;28;96461;-77
2022/04/10 04:25:10;;;;;;;5.10;2.83;;;4.30;99.90;;;2.63;77.67;99755.91;10325090;28;96710;-77
2022/04/10 04:30:13;;;;;;;4.53;3.17;;;4.30;99.90;;;2.60;78.04;99770.13;10368119;28;96903;-77
2022/04/10 04:35:16;;;;;;;4.83;2.87;;;4.30;99.90;;;2.56;78.50;99773.94;10339836;28;96543;-76
2022/04/10 04:40:25;;;;;;;6.93;3.67;;;4.30;99.90;;;2.56;78.43;99779.19;10389587;28;96953;-76
2022/04/10 04:45:33;;;;;;;4.60;3.43;;;4.30;99.90;;;2.61;78.42;99781.44;10329798;28;96580;-76
2022/04/10 04:50:37;;;;;;;5.20;2.73;;;4.30;99.90;;;2.63;78.73;99785.59;10355235;28;96832;-77
2022/04/10 04:55:41;;;;;;;4.90;3.03;;;4.30;99.90;;;2.71;78.49;99794.66;10369979;28;96520;-76
2022/04/10 05:00:47;;;;;;;6.57;2.77;;;4.40;99.90;;;2.79;78.48;99793.03;10350044;28;96490;-76
2022/04/10 05:05:50;;;;;;;7.13;3.23;;;4.50;99.90;;;2.88;78.53;99802.78;10336570;28;96712;-76
2022/04/10 05:10:53;;;;;;;5.43;3.03;;;4.50;99.90;;;3.00;78.33;99816.66;10336072;28;96744;-76
2022/04/10 05:15:56;;;;;;;3.87;2.93;;;4.60;99.90;;;3.12;78.38;99817.41;10339393;28;98210;-76
2022/04/10 05:20:59;;;;;;;5.43;3.33;;;4.70;99.90;;;3.21;78.24;99824.50;10330771;28;96507;-76
2022/04/10 05:26:02;;;;;;;4.03;2.47;;;4.80;99.90;;;3.33;77.55;99827.88;10347136;28;97665;-76
2022/04/10 05:31:06;;;;;;;6.03;3.83;;;4.90;99.90;;;3.44;76.97;99827.81;10371116;28;96718;-75
2022/04/10 05:36:09;;;;;;;4.10;2.83;;;5.00;99.90;;;3.60;75.87;99833.41;10360116;28;96525;-76
2022/04/10 05:41:13;;;;;;;3.20;2.17;;;5.20;99.90;;;3.76;75.40;99843.41;10382534;28;98403;-76
2022/04/10 05:46:16;;;;;;;3.60;2.30;;;5.30;99.90;;;3.95;73.37;99848.72;10331491;28;98453;-76
2022/04/10 05:51:19;;;;;;;3.60;2.37;;;5.50;99.90;;;4.13;71.77;99833.16;10329008;28;96685;-76
2022/04/10 05:56:22;;;;;;;3.50;2.20;;;5.70;99.90;;;4.33;71.68;99835.84;10322861;28;97790;-76
2022/04/10 06:01:25;;;;;;;3.77;2.20;;;5.80;99.90;;;4.52;70.69;99844.56;10337744;28;96626;-77
2022/04/10 06:06:28;;;;;;;2.87;2.20;;;6.00;99.90;;;4.73;69.90;99854.09;10329150;28;97970;-77
2022/04/10 06:11:32;;;;;;;4.97;2.63;;;6.20;99.90;;;4.94;69.21;99856.63;10355202;28;96968;-77
2022/04/10 06:16:35;;;;;;;6.63;3.50;;;6.40;99.90;;;5.17;69.13;99878.22;10380536;28;96638;-77
2022/04/10 06:21:38;;;;;;;5.40;2.50;;;6.60;99.90;;;5.31;68.28;99878.59;10352839;28;96705;-77
2022/04/10 06:26:44;;;;;;;4.50;2.50;;;6.80;99.80;;;5.45;68.91;99872.03;10343073;28;96577;-77
2022/04/10 06:31:48;;;;;;;4.50;2.90;;;6.90;99.90;;;5.54;67.80;99880.91;10372624;28;96546;-77
2022/04/10 06:36:51;;;;;;;5.27;2.80;;;7.00;99.50;;;5.57;67.26;99886.69;10368749;28;96573;-76
2022/04/10 06:41:54;;;;;;;4.63;2.90;;;7.10;98.40;;;5.57;67.46;99897.25;10372869;28;96750;-76
2022/04/10 06:46:58;;;;;;;4.10;2.73;;;7.10;99.40;;;5.70;66.95;99896.09;10332642;28;98312;-76
2022/04/10 06:52:01;;;;;;;4.67;2.83;;;7.10;98.50;;;5.78;66.81;99893.59;10351788;28;98159;-77
2022/04/10 06:57:03;;;;;;;3.53;2.47;;;7.20;98.10;;;5.76;66.22;99903.47;10350898;28;97977;-77
2022/04/10 07:02:07;;;;;;;3.93;2.73;;;7.20;97.90;;;5.82;66.37;99905.50;10346198;28;96889;-76
2022/04/10 07:07:10;;;;;;;3.63;2.80;;;7.30;97.50;;;5.96;65.90;99905.06;10348901;28;96886;-77
2022/04/10 07:12:13;;;;;;;4.27;2.93;;;7.40;96.90;;;6.13;65.57;99909.56;10338552;28;96593;-77
2022/04/10 07:17:16;;;;;;;3.03;2.27;;;7.60;97.10;;;6.33;63.87;99914.75;10344325;28;98131;-77
2022/04/10 07:27:41;;;;;;;5.20;2.65;;;7.80;93.80;;;6.43;60.98;99910.25;10324379;28;96705;-77
2022/04/10 07:32:53;;;;;;;3.40;1.90;;;7.90;92.00;;;6.68;62.02;99903.41;10345989;28;96868;-77
2022/04/10 07:37:56;;;;;;;2.60;1.70;;;8.10;93.20;;;7.31;60.25;99899.81;10343030;28;96490;-77
2022/04/10 07:42:59;;;;;;;3.10;1.60;;;8.60;91.40;;;8.12;58.52;99908.22;10349424;28;96591;-77
2022/04/10 07:48:03;;;;;;;8.70;2.90;;;9.00;90.70;;;9.09;55.62;99906.81;10364280;28;96435;-78
2022/04/10 07:53:06;;;;;;;9.00;3.30;;;9.50;88.00;;;9.83;52.57;99919.00;10351818;28;96684;-77
2022/04/10 07:58:09;;;;;;;5.93;2.10;;;10.00;83.20;;;10.37;50.64;99932.44;10342572;28;98294;-77
2022/04/10 08:03:12;;;;;;;3.13;1.70;;;10.30;79.30;;;10.47;50.08;99931.41;10323953;28;96553;-78
2022/04/10 08:08:15;;;;;;;3.00;1.63;;;10.60;76.90;;;10.48;48.37;99920.59;10369578;28;96556;-77
2022/04/10 08:13:18;;;;;;;3.37;1.80;;;10.50;76.60;;;10.66;49.47;99915.03;10363595;28;96939;-78
2022/04/10 08:18:21;;;;;;;2.63;1.43;;;10.70;76.80;;;10.60;49.51;99929.84;10333988;28;96695;-77
2022/04/10 08:23:24;;;;;;;2.93;2.10;;;10.90;75.80;;;10.61;50.68;99930.66;10342420;28;96616;-77
2022/04/10 08:28:27;;;;;;;3.67;1.40;;;11.00;76.10;;;11.07;49.93;99925.41;10348732;28;96537;-77
2022/04/10 08:33:29;;;;;;;2.67;1.60;;;11.20;74.80;;;10.73;46.95;99931.94;10365290;28;97070;-77
2022/04/10 08:38:32;;;;;;;4.40;2.00;;;11.10;68.40;;;10.17;48.94;99944.44;10371711;28;96503;-77
2022/04/10 08:43:36;;;;;;;2.83;1.77;;;10.90;71.40;;;10.06;50.29;99944.81;10387348;28;96548;-77
2022/04/10 08:48:40;;;;;;;3.13;1.63;;;11.00;72.30;;;10.01;50.23;99942.66;10347679;28;96699;-78
2022/04/10 08:53:46;;;;;;;3.07;1.57;;;11.20;71.10;;;10.07;50.27;99944.63;10370882;28;96550;-77
2022/04/10 08:58:50;;;;;;;3.07;1.50;;;11.40;69.40;;;9.98;48.69;99936.88;10342930;28;96742;-77
2022/04/10 09:03:52;;;;;;;2.97;1.50;;;11.30;67.30;;;10.07;50.48;99955.25;10354997;28;96588;-77
2022/04/10 09:09:18;;;;;;;1.37;0.90;;;11.40;70.20;;;10.13;47.19;99949.25;10347293;28;96500;-77
2022/04/10 09:14:35;;;;;;;1.83;0.75;;;11.30;65.70;;;10.33;46.60;99952.41;10309632;28;96884;-77
2022/04/10 09:19:52;;;;;;;1.40;1.00;;;11.40;62.90;;;10.49;45.79;99945.34;10341520;28;96649;-77
2022/04/10 09:25:14;;;;;;;2.27;0.90;;;11.60;63.50;;;10.40;44.48;99953.38;10345256;28;96708;-77
2022/04/10 09:30:19;;;;;;;3.03;1.10;;;11.60;59.70;;;10.48;45.46;99946.34;10336720;28;98599;-77
2022/04/10 09:35:23;;;;;;;2.90;1.20;;;11.70;62.60;;;10.66;46.29;99942.44;10372130;28;96558;-77
2022/04/10 09:40:35;;;;;;;2.37;1.40;;;11.70;63.20;;;10.93;45.83;99941.13;10387927;28;96615;-77
2022/04/10 09:45:39;;;;;;;1.97;1.10;;;11.80;64.20;;;11.35;44.86;99939.00;10347971;28;97582;-77
2022/04/10 09:50:42;;;;;;;2.73;1.30;;;12.10;61.60;;;11.72;45.40;99948.78;10384070;28;96455;-77
2022/04/10 09:55:55;;;;;;;2.55;1.08;;;12.40;62.60;;;12.08;43.04;99942.78;10338709;28;96735;-77
2022/04/10 10:01:02;;;;;;;2.92;1.27;;;12.80;60.80;;;12.54;42.53;99938.91;10353554;28;96550;-77
2022/04/10 10:06:12;;;;;;;2.33;1.08;;;13.30;60.20;;;12.45;41.41;99952.50;10322998;28;96645;-77
2022/04/10 10:11:17;;;;;;;2.42;0.90;;;13.30;58.40;;;12.29;40.25;99945.53;10351160;28;96512;-77
2022/04/10 10:16:20;;;;;;;2.17;1.10;;;13.10;54.70;;;11.80;40.96;99940.72;10323173;28;96566;-78
2022/04/10 10:21:26;;;;;;;3.17;1.02;;;12.80;57.30;;;12.14;40.90;99945.56;10337944;28;97126;-78
2022/04/10 10:26:38;;;;;;;2.08;1.33;;;13.00;56.20;;;12.35;40.42;99951.97;10361131;28;96503;-77
2022/04/10 10:32:18;;;;;;;2.78;1.00;;;13.20;56.00;;;12.47;39.48;99943.28;10380176;28;96607;-78
2022/04/10 10:37:31;;;;;;;1.60;0.90;;;13.30;54.90;;;12.78;39.40;99945.75;10362104;28;96584;-78
2022/04/10 10:42:44;;;;;;;2.55;1.15;;;13.60;55.10;;;13.04;37.65;99953.19;10385222;28;96577;-78
2022/04/10 10:47:47;;;;;;;3.30;0.93;;;13.80;51.30;;;13.31;37.17;99943.63;10373410;28;96752;-78
2022/04/10 10:53:05;;;;;;;2.00;0.90;;;14.00;51.60;;;13.43;37.54;99935.91;10353607;28;96689;-77
2022/04/10 10:58:08;;;;;;;2.65;1.00;;;14.20;52.70;;;13.78;37.28;99941.31;10329660;28;96973;-77
2022/04/10 11:03:11;;;;;;;1.95;1.10;;;14.70;52.40;;;13.99;36.28;99941.25;10333430;28;96416;-78
2022/04/10 11:08:17;;;;;;;1.48;0.90;;;14.90;50.50;;;13.85;36.64;99940.38;10327352;28;96737;-78
2022/04/10 11:13:20;;;;;;;1.70;0.80;;;14.80;50.90;;;13.54;36.76;99951.41;10334738;28;96817;-78
2022/04/10 11:18:23;;;;;;;2.78;1.23;;;14.50;50.80;;;13.55;37.76;99941.56;10330857;28;97501;-79
2022/04/10 11:23:39;;;;;;;2.50;1.40;;;14.50;51.90;;;13.53;36.94;99935.59;10354382;28;96498;-77
2022/04/10 11:29:04;;;;;;;2.25;1.00;;;14.50;51.10;;;13.60;37.46;99950.63;10319903;28;96844;-77
2022/04/10 11:34:26;;;;;;;1.40;0.95;;;14.60;52.00;;;13.34;37.14;99932.56;10325594;28;96588;-77
2022/04/10 11:39:34;;;;;;;1.42;0.93;;;14.40;50.20;;;13.44;37.85;99944.78;10313505;28;96584;-77
2022/04/10 11:44:37;;;;;;;1.50;0.80;;;14.50;51.60;;;14.07;36.42;99934.94;10320276;28;96601;-77
2022/04/10 11:49:53;;;;;;;1.20;0.93;;;15.00;50.60;;;14.09;34.04;99939.06;10323422;28;96502;-79
2022/04/10 11:54:56;;;;;;;1.50;0.60;;;15.10;46.80;;;13.81;34.33;99941.75;10338063;28;96573;-79
2022/04/10 11:59:59;;;;;;;1.48;0.80;;;14.80;47.50;;;13.54;34.25;99940.72;10345935;28;96598;-79
2022/04/10 12:05:04;;;;;;;2.40;0.70;;;14.60;47.50;;;13.34;34.10;99945.09;10387834;28;96540;-78
2022/04/10 12:10:08;;;;;;;1.90;1.10;;;14.40;47.50;;;12.85;34.50;99953.81;10351757;28;96574;-78
2022/04/10 12:15:18;;;;;;;1.58;0.80;;;13.90;46.70;;;12.38;36.03;99949.75;10381997;28;96755;-78
2022/04/10 12:20:37;;;;;;;1.63;0.80;;;13.60;48.60;;;12.61;35.66;99951.47;10326898;28;96877;-78
2022/04/10 12:25:42;;;;;;;2.42;1.05;;;13.90;48.10;;;12.51;34.02;99957.91;10334975;28;96546;-78
2022/04/10 12:30:46;;;;;;;2.63;0.85;;;13.90;45.80;;;12.48;35.19;99960.97;10353749;28;96697;-77
2022/04/10 12:35:49;;;;;;;0.95;0.70;;;13.90;47.50;;;12.39;34.29;99942.59;10332861;28;96415;-78
2022/04/10 12:41:03;;;;;;;0.77;0.65;;;13.80;45.70;;;12.67;34.81;99945.41;10334818;28;96607;-78
2022/04/10 12:46:12;;;;;;;1.20;0.50;;;14.00;46.70;;;13.00;33.72;99949.22;10333890;28;96621;-78
2022/04/10 12:51:16;;;;;;;0.70;0.50;;;14.20;46.30;;;13.22;32.73;99936.78;10308459;28;98026;-78
2022/04/10 12:56:22;;;;;;;1.45;0.88;;;14.40;44.50;;;13.21;33.69;99932.44;10341416;28;96651;-77
2022/04/10 13:01:30;;;;;;;2.80;1.05;;;14.40;46.40;;;12.77;33.57;99953.91;10355786;28;96883;-78
2022/04/10 13:06:48;;;;;;;2.55;1.25;;;14.00;45.60;;;12.24;34.97;99953.28;10338947;28;96598;-77
2022/04/10 13:11:53;;;;;;;0.98;0.68;;;13.50;46.40;;;12.44;35.74;99942.88;10341329;28;96562;-78
2022/04/10 13:17:04;;;;;;;1.55;0.68;;;13.70;47.60;;;12.87;34.55;99949.09;10336885;28;96984;-78
2022/04/10 13:22:07;;;;;;;2.58;0.80;;;14.20;45.80;;;12.93;34.30;99943.00;10340051;28;96959;-78
2022/04/10 13:27:17;;;;;;;7.13;3.80;;;14.40;45.30;;;12.45;34.82;99958.66;10339093;28;98252;-78
2022/04/10 13:32:20;;;;;;;3.88;1.50;;;14.00;46.50;;;11.70;35.14;99959.63;10348039;28;96557;-77
2022/04/10 13:37:23;;;;;;;0.90;0.87;;;13.30;46.50;;;11.17;36.06;99960.56;10337076;28;96876;-77
2022/04/10 13:42:26;;;;;;;1.80;0.70;;;12.80;47.40;;;11.81;36.14;99958.38;10370666;28;96736;-77
2022/04/10 13:47:30;;;;;;;2.13;0.80;;;13.30;47.80;;;12.60;32.56;99953.31;10361152;28;96565;-78
2022/04/10 13:52:34;;;;;;;1.00;0.55;;;14.10;43.30;;;12.23;32.98;99964.91;10320790;28;96766;-78
2022/04/10 13:57:37;;;;;;;1.42;0.88;;;13.90;44.10;;;11.52;32.44;99980.41;10322305;28;97920;-78
2022/04/10 14:02:40;;;;;;;3.47;0.90;;;13.20;43.00;;;10.97;34.32;99973.47;10332938;28;96823;-77
2022/04/10 14:07:43;;;;;;;1.83;1.42;;;12.60;45.20;;;11.50;34.88;99974.44;10328516;28;96801;-78
2022/04/10 14:12:47;;;;;;;3.30;2.10;;;13.00;46.20;;;12.26;34.54;99984.03;10335131;28;96612;-77
2022/04/10 14:17:55;;;;;;;3.00;1.30;;;13.70;46.20;;;12.31;34.15;99989.63;10330759;28;97330;-77
2022/04/10 14:23:01;;;;;;;2.83;1.15;;;13.80;45.40;;;11.53;35.57;100009.50;10335708;28;96601;-77
2022/04/10 14:28:04;;;;;;;2.25;1.15;;;13.10;47.30;;;11.10;37.19;100012.81;10349050;28;96668;-77
2022/04/10 14:33:07;;;;;;;3.55;1.15;;;12.70;48.50;;;11.55;37.40;99997.84;10356278;28;96592;-77
2022/04/10 14:38:13;;;;;;;3.67;2.45;;;13.00;48.70;;;12.33;36.50;100000.09;10365556;28;96529;-77
2022/04/10 14:43:16;;;;;;;4.13;2.22;;;13.70;47.80;;;12.99;34.93;99998.25;10368299;28;96984;-77
2022/04/10 14:48:19;;;;;;;2.90;1.20;;;14.30;46.60;;;13.13;31.66;100004.56;10356188;28;96635;-78
2022/04/10 14:53:22;;;;;;;2.00;1.10;;;14.50;41.60;;;13.02;31.98;100005.09;10343873;28;96506;-77
2022/04/10 14:58:26;;;;;;;2.80;1.30;;;14.40;43.50;;;13.15;31.68;100007.06;10367509;28;97927;-77
2022/04/10 15:03:28;;;;;;;2.55;1.48;;;14.50;43.20;;;13.25;31.89;100010.25;10313533;28;96606;-77
2022/04/10 15:08:31;;;;;;;2.20;1.40;;;14.60;43.20;;;13.03;31.96;100007.56;10350856;28;96636;-77
2022/04/10 15:13:37;;;;;;;2.60;1.42;;;14.30;43.70;;;12.58;32.38;100017.47;10342749;28;96595;-77
2022/04/10 15:18:40;;;;;;;2.90;1.00;;;13.80;44.00;;;12.56;32.82;100022.16;10335777;28;96976;-77
2022/04/10 15:23:45;;;;;;;1.95;0.85;;;13.80;44.10;;;12.71;31.37;100007.97;10353746;28;96595;-77
2022/04/10 15:28:48;;;;;;;2.00;0.90;;;13.90;42.10;;;12.69;31.60;100026.00;10335143;28;97403;-77
2022/04/10 15:33:51;;;;;;;2.33;1.17;;;13.90;42.90;;;12.58;32.31;100019.28;10307288;28;96461;-77
2022/04/10 15:38:54;;;;;;;2.33;1.17;;;13.70;43.90;;;12.52;31.78;100033.38;10302708;28;96613;-77
2022/04/10 15:43:57;;;;;;;4.35;1.10;;;13.70;43.20;;;12.27;30.79;100024.81;10312563;28;96586;-77
2022/04/10 15:49:00;;;;;;;2.45;1.40;;;13.50;43.00;;;12.01;32.00;100030.59;10333870;28;96451;-77
2022/04/10 15:54:03;;;;;;;4.67;1.60;;;13.20;43.60;;;12.06;32.84;100030.88;10356033;28;96578;-77
2022/04/10 15:59:08;;;;;;;3.75;2.08;;;13.20;44.10;;;12.17;33.32;100029.59;10326079;28;96997;-78
2022/04/10 16:04:17;;;;;;;;;;;13.40;44.80;;;11.99;33.69;100033.41;10294396;28;98614;-78
2022/04/10 16:09:21;;;;;;;4.90;1.60;;;13.20;45.20;;;11.52;34.51;100046.94;10333798;28;96841;-78
2022/04/10 16:14:25;;;;;;;2.33;1.27;;;12.80;46.80;;;10.86;36.38;100051.81;10346004;28;96546;-78
2022/04/10 16:19:29;;;;;;;2.93;1.47;;;12.20;47.70;;;10.47;37.46;100049.13;10333529;28;96521;-78
2022/04/10 16:24:34;;;;;;;3.07;1.80;;;12.00;48.60;;;10.20;38.42;100074.25;10346013;28;96528;-78
2022/04/10 16:34:59;;;;;;;2.43;1.30;;;11.40;47.50;;;9.33;36.68;100070.41;10333219;28;96417;-78
2022/04/10 16:40:04;;;;;;;4.33;2.23;;;10.90;47.70;;;8.99;37.85;100079.25;10363152;28;96365;-78
2022/04/10 16:45:09;;;;;;;3.07;1.83;;;10.60;48.70;;;8.75;38.22;100079.97;10391071;28;96519;-78
2022/04/10 16:50:13;;;;;;;3.50;1.67;;;10.40;49.10;;;8.52;39.22;100073.59;10374543;28;96362;-79
2022/04/10 16:55:17;;;;;;;4.30;1.87;;;10.20;49.80;;;8.31;40.02;100085.34;10369233;28;96673;-78
2022/04/10 17:00:22;;;;;;;3.80;1.73;;;10.00;50.30;;;8.08;39.65;100089.50;10324504;28;96587;-79
2022/04/10 17:05:25;;;;;;;5.33;1.70;;;9.80;49.90;;;7.91;40.01;100091.16;10356719;28;96703;-79
2022/04/10 17:10:31;;;;;;;3.83;1.60;;;9.60;50.20;;;7.73;41.03;100093.84;10335035;28;97433;-78
2022/04/10 17:15:35;;;;;;;8.83;3.63;;;9.50;51.60;;;7.56;42.03;100115.84;10338682;28;96555;-79
2022/04/10 17:20:42;;;;;;;2.60;1.53;;;9.30;52.20;;;7.44;42.70;100106.47;10333490;28;96578;-79
2022/04/10 17:25:45;;;;;;;12.73;4.73;;;9.20;53.10;;;7.32;43.84;100118.25;10351840;28;96569;-78
2022/04/10 17:30:49;;;;;;;5.77;2.73;;;9.00;54.20;;;7.24;44.41;100121.59;10304196;28;96945;-79
2022/04/10 17:35:52;;;;;;;4.87;1.83;;;9.00;54.80;;;7.14;45.15;100126.13;10335337;28;98267;-78
2022/04/10 17:41:00;;;;;;;5.17;2.00;;;8.90;54.90;;;6.98;45.91;100142.63;10325220;28;96875;-78
2022/04/10 17:46:05;;;;;;;5.03;2.07;;;8.70;55.70;;;6.80;46.58;100149.63;10358969;28;96668;-78
2022/04/10 17:51:17;;;;;;;4.57;1.60;;;8.60;56.40;;;6.67;46.36;100156.06;10353891;28;96568;-79
2022/04/10 17:56:20;;;;;;;4.23;1.77;;;8.50;56.20;;;6.55;46.68;100162.50;10359358;28;96693;-78
2022/04/10 18:01:23;;;;;;;4.60;2.60;;;8.40;56.30;;;6.39;47.47;100167.53;10317302;28;98747;-78
2022/04/10 18:06:26;;;;;;;5.97;2.93;;;8.20;56.60;;;6.24;47.30;100182.97;10318283;28;98446;-78
2022/04/10 18:11:30;;;;;;;7.47;3.07;;;8.10;56.90;;;6.12;47.13;100179.66;10320732;28;96748;-78
2022/04/10 18:16:33;;;;;;;5.00;2.97;;;8.00;56.80;;;6.04;47.21;100197.97;10323337;28;96562;-78
2022/04/10 18:21:40;;;;;;;5.67;2.97;;;7.80;56.70;;;5.95;47.40;100201.44;10353307;28;96687;-78
2022/04/10 18:26:58;;;;;;;4.83;2.63;;;7.80;57.00;;;5.85;47.24;100219.03;10353949;28;97236;-78
2022/04/10 18:32:01;;;;;;;6.77;3.40;;;7.70;57.10;;;5.70;47.95;100231.78;10366112;28;96640;-78
2022/04/10 18:37:06;;;;;;;3.47;1.67;;;7.60;57.40;;;5.53;48.45;100233.28;10317123;28;96607;-78
2022/04/10 18:42:09;;;;;;;6.07;2.87;;;7.40;57.60;;;5.39;48.71;100230.97;10324152;28;96769;-78
2022/04/10 18:47:13;;;;;;;11.37;4.10;;;7.30;58.10;;;5.26;49.34;100238.28;10320056;28;97722;-78
2022/04/10 18:52:17;;;;;;;21.13;6.07;;;7.20;58.30;;;5.11;49.85;100240.47;10322769;28;97432;-77
2022/04/10 18:57:27;;;;;;;19.60;5.50;;;7.00;58.70;;;5.01;50.11;100239.56;10330866;28;98762;-78
2022/04/10 19:02:33;;;;;;;17.00;5.50;;;6.90;59.30;;;4.93;50.56;100255.19;10314532;28;97264;-78
2022/04/10 19:07:36;;;;;;;14.77;4.80;;;6.80;59.70;;;4.86;51.42;100249.63;10305548;28;96563;-78
2022/04/10 19:12:42;;;;;;;7.73;3.33;;;6.70;60.20;;;4.81;51.64;100260.53;10303108;28;96673;-78
2022/04/10 19:17:53;;;;;;;6.83;2.60;;;6.70;61.50;;;4.83;52.49;100261.22;10305625;28;98008;-78
2022/04/10 19:22:56;;;;;;;7.87;2.77;;;6.70;62.50;;;4.93;52.49;100263.94;10321252;28;97326;-78
2022/04/10 19:27:59;;;;;;;4.47;2.27;;;6.70;62.80;;;5.05;52.29;100262.91;10328364;28;96786;-78
2022/04/10 19:33:03;;;;;;;4.57;2.10;;;6.80;63.20;;;5.09;52.61;100266.09;10317670;28;96724;-78
2022/04/10 19:38:06;;;;;;;7.20;2.63;;;6.80;62.50;;;5.05;52.73;100280.50;10319496;28;96844;-78
2022/04/10 19:43:10;;;;;;;4.03;2.03;;;6.80;62.90;;;4.98;53.13;100280.19;10309086;28;96908;-78
2022/04/10 19:48:16;;;;;;;3.40;2.10;;;6.80;62.60;;;4.89;53.82;100282.75;10339601;28;96871;-78
2022/04/10 19:53:36;;;;;;;3.13;1.83;;;6.70;63.00;;;4.75;54.12;100284.75;10331573;28;97819;-78
2022/04/10 19:58:45;;;;;;;4.17;1.93;;;6.60;63.50;;;4.61;54.78;100302.63;10304903;28;96439;-78
2022/04/10 20:03:48;;;;;;;7.63;2.70;;;6.50;64.10;;;4.52;54.99;100306.88;10319195;28;98473;-78
2022/04/10 20:08:52;;;;;;;5.30;2.70;;;6.40;64.60;;;4.44;55.78;100307.53;10319461;28;97820;-78
2022/04/10 20:13:57;;;;;;;5.20;2.70;;;6.30;65.00;;;4.41;56.16;100315.66;10312210;28;96589;-79
2022/04/10 20:19:00;;;;;;;4.53;2.30;;;6.30;66.00;;;4.37;56.26;100319.47;10317546;28;98762;-78
2022/04/10 20:24:04;;;;;;;6.93;2.90;;;6.20;66.40;;;4.32;57.18;100315.53;10323253;28;97388;-78
2022/04/10 20:29:08;;;;;;;5.03;2.30;;;6.20;67.40;;;4.32;57.39;100321.69;10339029;28;96742;-78
2022/04/10 20:34:11;;;;;;;5.37;2.30;;;6.20;69.30;;;4.37;57.68;100316.00;10344023;28;98354;-78
2022/04/10 20:39:14;;;;;;;6.87;2.60;;;6.20;69.70;;;4.37;58.44;100326.53;10357725;28;98083;-79
2022/04/10 20:44:17;;;;;;;6.43;2.27;;;6.20;69.30;;;4.29;59.02;100330.63;10344142;28;97620;-78
2022/04/10 20:49:20;;;;;;;3.53;1.70;;;6.10;71.20;;;4.26;59.20;100337.97;10332171;28;96578;-79
2022/04/10 20:54:24;;;;;;;5.40;2.20;;;6.10;72.00;;;4.32;58.94;100336.59;10356028;28;96585;-78
2022/04/10 20:59:30;;;;;;;6.37;2.23;;;6.10;72.00;;;4.33;58.59;100352.28;10347296;28;97558;-78
2022/04/10 21:04:33;;;;;;;1.90;1.33;;;6.10;71.60;;;4.39;58.18;100356.22;10367996;28;98225;-78
2022/04/10 21:09:36;;;;;;;2.73;1.30;;;6.10;70.90;;;4.38;58.06;100360.63;10348217;28;96468;-78
2022/04/10 21:14:39;;;;;;;4.60;1.60;;;6.10;70.80;;;4.35;57.55;100358.25;10331333;28;96539;-79
2022/04/10 21:19:42;;;;;;;2.83;1.30;;;6.10;70.30;;;4.33;57.42;100349.66;10349818;28;97625;-79
2022/04/10 21:24:45;;;;;;;3.20;1.60;;;6.10;70.10;;;4.30;57.05;100337.56;10357333;28;96494;-79
2022/04/10 21:29:49;;;;;;;3.53;1.20;;;6.10;69.60;;;4.37;55.92;100343.16;10311820;28;96711;-78